Share

Ercan, Cyprus

10:30 AM EEST on April 24, 2014 (GMT +0300)
Ercan (LCEN) Elev 299 ft | 35.15 °N, 33.50 °E | Change Station

Current weather conditions updated 10 minutes ago

Clear
Clear
77 °F
Feels Like 77 °F
N
9
Wind Variable Wind from East
Sunrise 6:03 AM
Sunset 7:25 PM
Moon Waning Crescent

Today is forecast to be Warmer than yesterday.

Pressure 29.92 in
Visibility -9999.0 miles
Clouds
Dew Point 54 °F
Humidity 44%
Rainfall 0.00 in
Snow Depth Not available.
UV Not available.
Pollen Not available.
Air Quality Not available.
Flu Activity Not available.
METAR LCEN 240720Z 09008KT 050V130 CAVOK 25/12 Q1013 NOSIG

More Conditions Fewer Conditions

Pressure 29.92 in
Visibility -9999.0 miles
Clouds
Dew Point 54 °F
Humidity 44%
Rainfall 0.00 in
Snow Depth Not available.
UV Not available.
Pollen Not available.
Air Quality Not available.
Flu Activity Not available.
METAR LCEN 240720Z 09008KT 050V130 CAVOK 25/12 Q1013 NOSIG

More Conditions Fewer Conditions

10-Day Weather Forecast

Almanac

Astronomy

Apr. 24, 2014 Rise Set
Actual Time 6:03 AM EEST 7:25 PM EEST
Civil Twilight 5:36 AM EEST 7:52 PM EEST
Nautical Twilight 5:04 AM EEST 8:24 PM EEST
Astronomical Twilight 4:31 AM EEST 8:57 PM EEST
Moon 2:48 AM EEST 2:29 PM EEST
Length of Visible Light 14h 15m
Length of Day
13h 22m
Tomorrow will be 1m 59s longer.
Waning Crescent, 28% of the Moon is Illuminated
Today
Waning Crescent
Apr 29
New
May 6
First Quarter
May 14
Full
May 21
Last Quarter

Yesterday's Extremes

Country Highs Country Lows

Community

  • Stacked
    Stacked
  • clouds approaching Red Sox Nation
    clouds approaching Red Sox Nation
  • Balance
    Balance
  • Nestled In
    Nestled In
  • Stunning Sunrise
    Stunning Sunrise

WunderPhotos

Upload Photos

1,704,571 photos uploaded!

WunderBlogs® & News

Nearby

Snow Depth

Not available.

Coastal Water Temperatures

Place Temperature
No Stations Reporting

Earthquake Activity

City Distance Mag. Time & Date
No recent earthquake activity has been reported nearby.
Minimum magnitude displayed is 2.5.

Nearby Weather Stations

Station Location Temp. Heat Index Dew Point Humidity Wind Precip. Elev Updated Type
Lakatamia, Nicosia 82.1 °F 81 °F 55 °F 39% East  at  0.0 mph 0.00 in / hr 758 ft 10:25 AM EEST Normal
MOSFILOTI, Mosfiloti 77.4 °F 79 °F 57 °F 50% ENE  at  3.3 mph 0.00 in / hr 892 ft 10:30 AM EEST Rapid Fire
Avgorou, Cyprus, Avgorou 71.3 °F 75 °F 60 °F 68% North  at  4.0 mph 0.00 in / hr 125 ft 10:26 AM EEST Normal

Show More Stations Show Fewer Stations

What do you think?

We're not finished. Please let us know what you like, what you don't like, and what you are still missing.